Dublin, Ireland

3:28 AM IST on September 21, 2014 (GMT +0100)
Blackrock, Co. Dublin | Change Station
CLOSE
Current Station
Personal Weather Station
Location: Dublin, LEINSTER
Elevation: 131 ft
Nearby Weather Stations

Elev 131 ft 53.30 °N, 6.18 °W | Updated 10 minutes ago

Clear
Clear
50.0 °F
Feels Like 50.0 °F
N
0.0
Wind Variable Wind from SW
Gusts 0.0 mph

Today
High -- | Low -- °F
--% Chance of Precip.
Yesterday
High -- | Low -- °F
Precip. -- in
7:08 AM 7:26 PM
Waning Crescent, 9% visible
Pressure 30.27 in
Visibility -9999.0 miles
Clouds
Dew Point 47 °F
Humidity 88%
Rainfall 0.00 in
Snow Depth Not available.
UV Not available.
Pollen Not available.
Air Quality Not available.
Flu Activity Not available.
METAR EIDW 210200Z 27004KT CAVOK 05/05 Q1025 NOSIG

More Conditions Fewer Conditions

Pressure 30.27 in
Visibility -9999.0 miles
Clouds
Dew Point 47 °F
Humidity 88%
Rainfall 0.00 in
Snow Depth Not available.
UV Not available.
Pollen Not available.
Air Quality Not available.
Flu Activity Not available.
METAR EIDW 210200Z 27004KT CAVOK 05/05 Q1025 NOSIG

More Conditions Fewer Conditions

10-Day Weather Forecast

Almanac

Astronomy

Sep. 21, 2014 Rise Set
Actual Time 7:08 AM IST 7:26 PM IST
Civil Twilight 6:33 AM IST 8:01 PM IST
Nautical Twilight 5:52 AM IST 8:42 PM IST
Astronomical Twilight 5:08 AM IST 9:25 PM IST
Moon 4:12 AM IST 6:08 PM IST
Length of Visible Light 13h 27m
Length of Day
12h 17m
Tomorrow will be 4m 10s shorter.
Waning Crescent, 9% of the Moon is Illuminated
Sep 20
Waning Crescent
Sep 24
New
Oct 1
First Quarter
Oct 8
Full
Oct 15
Last Quarter

Yesterday's Extremes

Country Highs Country Lows

Community

WunderPhotos

Upload Photos

1,755,032 photos uploaded!

WunderBlogs® & News

Nearby

Snow Depth

Not available.

Earthquake Activity

City Distance Mag. Time & Date
No recent earthquake activity has been reported nearby.
Minimum magnitude displayed is 2.5.

Coastal Water Temperatures

Place Temperature
No Stations Reporting

Nearby Weather Stations